D/T METAR WX W/DIR W/SPE G/SPE TEMP DEWP
20/06/19 16:30 EISG 201530Z 29009KT 9999 BKN044 12/08 Q//// WNW (290°) 10.4mph 12°C 8°C
20/06/19 15:30 EISG 201430Z 25005KT 9999 FEW017 SCT044 12/09 Q//// WSW (250°) 5.8mph 12°C 9°C
20/06/19 15:00 EISG 201400Z 28011KT 9999 BKN048 12/08 Q//// W (280°) 12.7mph 12°C 8°C
20/06/19 14:30 EISG 201330Z 28008KT 9999 FEW014 SCT020 12/09 Q//// W (280°) 9.2mph 12°C 9°C
20/06/19 14:00 EISG 201300Z 28012KT 9999 BKN044 12/08 Q//// W (280°) 13.8mph 12°C 8°C
20/06/19 13:30 EISG 201230Z 29012KT CAVOK 13/08 Q//// WNW (290°) 13.8mph 13°C 8°C
20/06/19 13:00 EISG 201200Z 27009KT CAVOK 12/09 Q//// W (270°) 10.4mph 12°C 9°C
20/06/19 12:30 EISG 201130Z 28011KT 9999 SCT047 13/08 Q//// W (280°) 12.7mph 13°C 8°C
20/06/19 12:00 EISG 201100Z 28009KT 9999 FEW024 SCT037 BKN055 13/09 Q//// W (280°) 10.4mph 13°C 9°C
20/06/19 11:00 EISG 201000Z 29008KT CAVOK 13/09 Q//// WNW (290°) 9.2mph 13°C 9°C
20/06/19 10:30 EISG 200930Z 29009KT 9999 FEW043 12/09 Q//// WNW (290°) 10.4mph 12°C 9°C
20/06/19 09:30 EISG 200830Z 29011KT 5000 -RA BKN015 BKN022 BKN049 10/09 Q//// -RA WNW (290°) 12.7mph 10°C 9°C
20/06/19 09:00 EISG 200800Z 25009KT 9999 SCT026 BKN033 BKN060 10/08 Q//// WSW (250°) 10.4mph 10°C 8°C
19/06/19 21:00 EISG 192000Z 25008KT 9999 FEW028 SCT033 BKN039 11/10 Q1008 WSW (250°) 9.2mph 11°C 10°C
19/06/19 20:30 EISG 191930Z 24008KT 9999 FEW034 SCT044 BKN060 11/10 Q1008 WSW (240°) 9.2mph 11°C 10°C
19/06/19 20:00 EISG 191900Z 25008KT 9999 FEW015 SCT060 11/11 Q1008 WSW (250°) 9.2mph 11°C 11°C
19/06/19 18:00 EISG 191700Z 24012KT 9999 SCT041 BKN048 BKN055 13/10 Q1007 WSW (240°) 13.8mph 13°C 10°C
19/06/19 17:30 EISG 191630Z 26009KT 9999 FEW023 BKN043 OVC055 12/11 Q1007 W (260°) 10.4mph 12°C 11°C
19/06/19 17:00 EISG 191600Z 24012KT 9999 FEW014 BKN042 OVC055 13/10 Q1007 WSW (240°) 13.8mph 13°C 10°C
19/06/19 16:00 EISG 191500Z 26012KT 9999 SCT028 BKN055 14/10 Q1008 W (260°) 13.8mph 14°C 10°C
19/06/19 15:30 EISG 191430Z 25011KT 9999 BKN044 BKN050 14/11 Q1008 WSW (250°) 12.7mph 14°C 11°C
19/06/19 15:00 EISG 191400Z 25012KT 9999 FEW028 BKN037 OVC048 13/10 Q1008 WSW (250°) 13.8mph 13°C 10°C
19/06/19 14:30 EISG 191330Z 26010KT 9999 BKN028 BKN044 OVC060 14/10 Q1008 W (260°) 11.5mph 14°C 10°C
19/06/19 14:00 EISG 191300Z 24008KT 9999 FEW015 BKN033 OVC050 13/11 Q1008 WSW (240°) 9.2mph 13°C 11°C
19/06/19 13:30 EISG 191230Z 28011KT 9999 SCT029 BKN043 OVC050 13/11 Q1008 W (280°) 12.7mph 13°C 11°C
19/06/19 13:00 EISG 191200Z 23009KT 9999 FEW028 BKN041 OVC048 14/10 Q1008 SW (230°) 10.4mph 14°C 10°C
19/06/19 12:30 EISG 191130Z 25010KT 9999 FEW026 BKN038 14/10 Q1008 WSW (250°) 11.5mph 14°C 10°C
19/06/19 12:00 EISG 191100Z 24010KT 9999 FEW021 SCT028 BKN045 13/10 Q1008 WSW (240°) 11.5mph 13°C 10°C
19/06/19 11:30 EISG 191030Z 26012KT 9999 FEW017 BKN043 OVC050 13/10 Q1008 W (260°) 13.8mph 13°C 10°C
19/06/19 10:30 EISG 190930Z 25010KT 9999 SCT026 SCT032 BKN050 14/10 Q1008 WSW (250°) 11.5mph 14°C 10°C
19/06/19 10:00 EISG 190900Z 24010KT CAVOK 14/09 Q1008 WSW (240°) 11.5mph 14°C 9°C
19/06/19 09:30 EISG 190830Z 26010KT 9999 SCT021 BKN043 OVC050 13/10 Q1009 W (260°) 11.5mph 13°C 10°C
19/06/19 09:00 EISG 190800Z 23007KT 180V270 9999 SCT020 13/10 Q1009 SW (230°) 8.1mph 13°C 10°C
18/06/19 21:00 EISG 182000Z VRB01KT 9999 SCT034 SCT042 BKN060 13/11 Q1011 N (0°) 1.2mph 13°C 11°C
18/06/19 18:00 EISG 181700Z 32010KT CAVOK 14/12 Q1011 NW (320°) 11.5mph 14°C 12°C
18/06/19 17:30 EISG 181630Z 30009KT CAVOK 14/11 Q1011 WNW (300°) 10.4mph 14°C 11°C
18/06/19 17:00 EISG 181600Z 29008KT 9999 SCT045 14/11 Q1011 WNW (290°) 9.2mph 14°C 11°C
18/06/19 16:30 EISG 181530Z 29009KT CAVOK 14/11 Q1011 WNW (290°) 10.4mph 14°C 11°C
18/06/19 16:00 EISG 181500Z 30011KT 9999 FEW043 14/11 Q1011 WNW (300°) 12.7mph 14°C 11°C
18/06/19 15:30 EISG 181430Z 29011KT 9999 SCT035 BKN045 14/11 Q1011 WNW (290°) 12.7mph 14°C 11°C
18/06/19 15:00 EISG 181400Z 28008KT 9999 FEW043 15/11 Q1011 W (280°) 9.2mph 15°C 11°C
18/06/19 14:30 EISG 181330Z 28008KT 9999 FEW048 15/12 Q1011 W (280°) 9.2mph 15°C 12°C
18/06/19 14:00 EISG 181300Z 26010KT 220V290 9999 SCT033 SCT060 15/11 Q1011 W (260°) 11.5mph 15°C 11°C
18/06/19 13:30 EISG 181230Z 24007KT CAVOK 16/10 Q1011 WSW (240°) 8.1mph 16°C 10°C
18/06/19 13:00 EISG 181200Z 24009KT 9999 FEW028 SCT033 OVC050 15/10 Q1011 WSW (240°) 10.4mph 15°C 10°C
18/06/19 12:30 EISG 181130Z 24008KT 9999 SCT038 OVC045 14/10 Q1012 WSW (240°) 9.2mph 14°C 10°C
18/06/19 12:00 EISG 181100Z 24008KT 9999 SCT019 SCT029 OVC035 14/11 Q1012 WSW (240°) 9.2mph 14°C 11°C
18/06/19 11:30 EISG 181030Z 23011KT 9999 BKN032 OVC040 13/10 Q1012 SW (230°) 12.7mph 13°C 10°C